Time;durP1;ratioP1;P1;durP2;ratioP2;P2;SDS_P1;SDS_P2;PMS_P1;PMS_P2;Temp;Humidity;BMP_temperature;BMP_pressure;BME280_temperature;BME280_humidity;BME280_pressure;Samples;Min_cycle;Max_cycle;Signal;HPM_P1;HPM_P2
2022/09/21 00:01:02;;;;;;;;;;;;;;;;;;5008460;28;19925;-76
2022/09/21 00:03:29;;;;;;;;;;;;;;;;;;5001319;28;19920;-79
2022/09/21 00:05:56;;;;;;;;;;;;;;;;;;5006456;28;20034;-77
2022/09/21 00:08:24;;;;;;;;;;;;;;;;;;5006947;28;20384;-78
2022/09/21 00:10:51;;;;;;;;;;;;;;;;;;5007456;28;20383;-78
2022/09/21 00:13:19;;;;;;;;;;;;;;;;;;5002223;28;19965;-79
2022/09/21 00:15:47;;;;;;;;;;;;;;;;;;5005697;28;19971;-77
2022/09/21 00:18:14;;;;;;;;;;;;;;;;;;5000328;28;19952;-78
2022/09/21 00:20:42;;;;;;;;;;;;;;;;;;5004368;28;19929;-77
2022/09/21 00:23:09;;;;;;;;;;;;;;;;;;5006711;28;19936;-78
2022/09/21 00:25:36;;;;;;;;;;;;;;;;;;5006427;28;20039;-76
2022/09/21 00:28:04;;;;;;;;;;;;;;;;;;5003441;28;19936;-79
2022/09/21 00:30:31;;;;;;;;;;;;;;;;;;5004580;28;19975;-75
2022/09/21 00:32:58;;;;;;;;;;;;;;;;;;5008023;28;19969;-78
2022/09/21 00:35:25;;;;;;;;;;;;;;;;;;5007216;28;19925;-76
2022/09/21 00:37:52;;;;;;;;;;;;;;;;;;5006203;28;19964;-79
2022/09/21 00:40:19;;;;;;;;;;;;;;;;;;5007499;28;19968;-79
2022/09/21 00:42:46;;;;;;;;;;;;;;;;;;5001779;28;19943;-77
2022/09/21 00:45:20;;;;;;;;;;;;;;;;;;5005275;28;19955;-78
2022/09/21 00:47:47;;;;;;;;;;;;;;;;;;5025710;28;19947;-77
2022/09/21 00:50:14;;;;;;;;;;;;;;;;;;5006817;28;19921;-77
2022/09/21 00:52:41;;;;;;;;;;;;;;;;;;5008239;28;19929;-78
2022/09/21 00:55:08;;;;;;;;;;;;;;;;;;5004791;28;19976;-78
2022/09/21 00:57:35;;;;;;;;;;;;;;;;;;5005181;28;19929;-75
2022/09/21 01:00:03;;;;;;;;;;;;;;;;;;5005020;28;19925;-78
2022/09/21 01:02:30;;;;;;;;;;;;;;;;;;5006296;28;19920;-78
2022/09/21 01:04:57;;;;;;;;;;;;;;;;;;5006950;28;19924;-75
2022/09/21 01:07:25;;;;;;;;;;;;;;;;;;5001316;28;19921;-78
2022/09/21 01:09:52;;;;;;;;;;;;;;;;;;5005001;28;20568;-77
2022/09/21 01:12:19;;;;;;;;;;;;;;;;;;5002985;28;19978;-76
2022/09/21 01:14:46;;;;;;;;;;;;;;;;;;4999526;28;19929;-79
2022/09/21 01:17:13;;;;;;;;;;;;;;;;;;5003489;28;19980;-78
2022/09/21 01:19:41;;;;;;;;;;;;;;;;;;5009717;28;19931;-77
2022/09/21 01:22:08;;;;;;;;;;;;;;;;;;5004399;28;19931;-77
2022/09/21 01:24:36;;;;;;;;;;;;;;;;;;5000175;28;19947;-78
2022/09/21 01:27:03;;;;;;;;;;;;;;;;;;5007162;28;20015;-78
2022/09/21 01:29:30;;;;;;;;;;;;;;;;;;5008292;28;19924;-77
2022/09/21 01:31:57;;;;;;;;;;;;;;;;;;5004357;28;20277;-77
2022/09/21 01:34:25;;;;;;;;;;;;;;;;;;5005430;28;19921;-78
2022/09/21 01:36:52;;;;;;;;;;;;;;;;;;5005202;28;19940;-78
2022/09/21 01:39:20;;;;;;;;;;;;;;;;;;5003819;28;19976;-78
2022/09/21 01:41:47;;;;;;;;;;;;;;;;;;5005640;28;20027;-77
2022/09/21 01:44:15;;;;;;;;;;;;;;;;;;4998040;28;19930;-78
2022/09/21 01:46:42;;;;;;;;;;;;;;;;;;5006439;28;19931;-79
2022/09/21 01:49:09;;;;;;;;;;;;;;;;;;5005581;28;20357;-76
2022/09/21 01:51:37;;;;;;;;;;;;;;;;;;5003813;28;19968;-77
2022/09/21 01:54:04;;;;;;;;;;;;;;;;;;5007299;28;19975;-78
2022/09/21 01:56:31;;;;;;;;;;;;;;;;;;5009157;28;19940;-77
2022/09/21 01:58:58;;;;;;;;;;;;;;;;;;5007397;28;19921;-78
2022/09/21 02:01:25;;;;;;;;;;;;;;;;;;5007228;28;19925;-79
2022/09/21 02:03:53;;;;;;;;;;;;;;;;;;5007918;28;19925;-79
2022/09/21 02:06:20;;;;;;;;;;;;;;;;;;5006642;28;20460;-76
2022/09/21 02:08:47;;;;;;;;;;;;;;;;;;5010976;28;19925;-76
2022/09/21 02:11:14;;;;;;;;;;;;;;;;;;5005883;28;19929;-79
2022/09/21 02:13:41;;;;;;;;;;;;;;;;;;5004121;28;19933;-76
2022/09/21 02:16:09;;;;;;;;;;;;;;;;;;5009492;28;19925;-79
2022/09/21 02:18:39;;;;;;;;;;;;;;;;;;5010200;28;20016;-77
2022/09/21 02:21:07;;;;;;;;;;;;;;;;;;5008715;28;20011;-79
2022/09/21 02:23:34;;;;;;;;;;;;;;;;;;5007727;28;19921;-78
2022/09/21 02:26:01;;;;;;;;;;;;;;;;;;5003466;28;19932;-78
2022/09/21 02:28:28;;;;;;;;;;;;;;;;;;5005877;28;19925;-78
2022/09/21 02:30:56;;;;;;;;;;;;;;;;;;5007741;28;20364;-78
2022/09/21 02:33:23;;;;;;;;;;;;;;;;;;5008364;28;20342;-77
2022/09/21 02:35:50;;;;;;;;;;;;;;;;;;5006666;28;19933;-79
2022/09/21 02:38:17;;;;;;;;;;;;;;;;;;4999299;28;20019;-77
2022/09/21 02:40:44;;;;;;;;;;;;;;;;;;5007873;28;20292;-79
2022/09/21 02:43:11;;;;;;;;;;;;;;;;;;5005225;28;20009;-75
2022/09/21 02:45:40;;;;;;;;;;;;;;;;;;5009471;28;20375;-79
2022/09/21 02:48:07;;;;;;;;;;;;;;;;;;5008724;28;20394;-78
2022/09/21 02:50:34;;;;;;;;;;;;;;;;;;5007639;28;19921;-78
2022/09/21 02:53:01;;;;;;;;;;;;;;;;;;5004529;28;19936;-78
2022/09/21 02:55:28;;;;;;;;;;;;;;;;;;5010037;28;19921;-79
2022/09/21 02:57:55;;;;;;;;;;;;;;;;;;5025351;28;19921;-77
2022/09/21 03:00:22;;;;;;;;;;;;;;;;;;5003804;28;19944;-78
2022/09/21 03:02:49;;;;;;;;;;;;;;;;;;4999658;28;19954;-78
2022/09/21 03:05:16;;;;;;;;;;;;;;;;;;5007572;28;19925;-79
2022/09/21 03:07:43;;;;;;;;;;;;;;;;;;5007825;28;19921;-78
2022/09/21 03:10:10;;;;;;;;;;;;;;;;;;5011091;28;19925;-77
2022/09/21 03:12:37;;;;;;;;;;;;;;;;;;5008159;28;20307;-77
2022/09/21 03:15:04;;;;;;;;;;;;;;;;;;5008887;28;19925;-77
2022/09/21 03:17:31;;;;;;;;;;;;;;;;;;5008771;28;19925;-77
2022/09/21 03:19:58;;;;;;;;;;;;;;;;;;5008562;28;20372;-78
2022/09/21 03:22:26;;;;;;;;;;;;;;;;;;5008314;28;19924;-79
2022/09/21 03:24:56;;;;;;;;;;;;;;;;;;5006967;28;19964;-73
2022/09/21 03:27:23;;;;;;;;;;;;;;;;;;5006565;28;19931;-79
2022/09/21 03:29:50;;;;;;;;;;;;;;;;;;5004742;28;20531;-76
2022/09/21 03:32:17;;;;;;;;;;;;;;;;;;5008510;28;19971;-79
2022/09/21 03:34:44;;;;;;;;;;;;;;;;;;5005265;28;19922;-78
2022/09/21 03:37:11;;;;;;;;;;;;;;;;;;4999800;28;19929;-75
2022/09/21 03:39:38;;;;;;;;;;;;;;;;;;5008970;28;20530;-78
2022/09/21 03:42:05;;;;;;;;;;;;;;;;;;5007509;28;19921;-79
2022/09/21 03:44:32;;;;;;;;;;;;;;;;;;5007595;28;20576;-78
2022/09/21 03:46:59;;;;;;;;;;;;;;;;;;5005754;28;19921;-78
2022/09/21 03:49:26;;;;;;;;;;;;;;;;;;5006855;28;19931;-76
2022/09/21 03:51:54;;;;;;;;;;;;;;;;;;5004459;28;19925;-78
2022/09/21 03:54:21;;;;;;;;;;;;;;;;;;5003137;28;19936;-76
2022/09/21 03:56:48;;;;;;;;;;;;;;;;;;4998630;28;20474;-78
2022/09/21 03:59:16;;;;;;;;;;;;;;;;;;4998915;28;19925;-78
2022/09/21 04:01:43;;;;;;;;;;;;;;;;;;5001318;28;19929;-78
2022/09/21 04:04:10;;;;;;;;;;;;;;;;;;5003336;28;19932;-78
2022/09/21 04:06:37;;;;;;;;;;;;;;;;;;5010024;28;20311;-78
2022/09/21 04:09:04;;;;;;;;;;;;;;;;;;5007439;28;19929;-77
2022/09/21 04:11:32;;;;;;;;;;;;;;;;;;5005993;28;20011;-79
2022/09/21 04:13:59;;;;;;;;;;;;;;;;;;4998933;28;19974;-78
2022/09/21 04:16:26;;;;;;;;;;;;;;;;;;4995457;28;19932;-79
2022/09/21 04:18:53;;;;;;;;;;;;;;;;;;5004985;28;19971;-79
2022/09/21 04:21:20;;;;;;;;;;;;;;;;;;5007212;28;19929;-78
2022/09/21 04:23:48;;;;;;;;;;;;;;;;;;5007081;28;20073;-78
2022/09/21 04:26:15;;;;;;;;;;;;;;;;;;5008038;28;19921;-79
2022/09/21 04:28:42;;;;;;;;;;;;;;;;;;5008239;28;19932;-78
2022/09/21 04:31:09;;;;;;;;;;;;;;;;;;5005921;28;20292;-77
2022/09/21 04:33:36;;;;;;;;;;;;;;;;;;5007247;28;19925;-80
2022/09/21 04:36:04;;;;;;;;;;;;;;;;;;5006027;28;20364;-76
2022/09/21 04:38:31;;;;;;;;;;;;;;;;;;5003948;28;19929;-78
2022/09/21 04:40:58;;;;;;;;;;;;;;;;;;5008966;28;19971;-78
2022/09/21 04:43:25;;;;;;;;;;;;;;;;;;5007010;28;19929;-77
2022/09/21 04:45:52;;;;;;;;;;;;;;;;;;5024946;28;20347;-77
2022/09/21 04:48:19;;;;;;;;;;;;;;;;;;5007053;28;19925;-79
2022/09/21 04:50:46;;;;;;;;;;;;;;;;;;5007810;28;19932;-75
2022/09/21 04:53:13;;;;;;;;;;;;;;;;;;5006881;28;19932;-76
2022/09/21 04:55:40;;;;;;;;;;;;;;;;;;5004822;28;20272;-78
2022/09/21 04:58:07;;;;;;;;;;;;;;;;;;5008457;28;19924;-78
2022/09/21 05:00:34;;;;;;;;;;;;;;;;;;5007027;28;19929;-76
2022/09/21 05:03:01;;;;;;;;;;;;;;;;;;5005241;28;19925;-76
2022/09/21 05:05:28;;;;;;;;;;;;;;;;;;5007065;28;19948;-79
2022/09/21 05:07:55;;;;;;;;;;;;;;;;;;5005848;28;19921;-78
2022/09/21 05:10:21;;;;;;;;;;;;;;;;;;5003915;28;19929;-78
2022/09/21 05:12:48;;;;;;;;;;;;;;;;;;5006402;28;19921;-78
2022/09/21 05:15:15;;;;;;;;;;;;;;;;;;4993177;28;19932;-78
2022/09/21 05:17:42;;;;;;;;;;;;;;;;;;4999394;28;20011;-78
2022/09/21 05:20:09;;;;;;;;;;;;;;;;;;4998992;28;19921;-75
2022/09/21 05:22:36;;;;;;;;;;;;;;;;;;5004586;28;20435;-75
2022/09/21 05:25:03;;;;;;;;;;;;;;;;;;5003463;28;19932;-76
2022/09/21 05:27:30;;;;;;;;;;;;;;;;;;5005750;28;19925;-80
2022/09/21 05:29:57;;;;;;;;;;;;;;;;;;5009981;28;19951;-78
2022/09/21 05:32:25;;;;;;;;;;;;;;;;;;5007778;28;19921;-77
2022/09/21 05:34:52;;;;;;;;;;;;;;;;;;5005213;28;19933;-78
2022/09/21 05:37:19;;;;;;;;;;;;;;;;;;5005600;28;19951;-78
2022/09/21 05:39:46;;;;;;;;;;;;;;;;;;5009606;28;20372;-75
2022/09/21 05:42:13;;;;;;;;;;;;;;;;;;5007068;28;20030;-78
2022/09/21 05:44:40;;;;;;;;;;;;;;;;;;5010077;28;20003;-74
2022/09/21 05:47:07;;;;;;;;;;;;;;;;;;5009369;28;19931;-77
2022/09/21 05:49:34;;;;;;;;;;;;;;;;;;5006327;28;20445;-76
2022/09/21 05:52:01;;;;;;;;;;;;;;;;;;5008261;28;19921;-76
2022/09/21 05:54:28;;;;;;;;;;;;;;;;;;5006556;28;19951;-79
2022/09/21 05:56:55;;;;;;;;;;;;;;;;;;5007638;28;19928;-77
2022/09/21 05:59:22;;;;;;;;;;;;;;;;;;5007647;28;20355;-77
2022/09/21 06:01:49;;;;;;;;;;;;;;;;;;5010574;28;19925;-78
2022/09/21 06:04:16;;;;;;;;;;;;;;;;;;5007275;28;20335;-77
2022/09/21 06:06:43;;;;;;;;;;;;;;;;;;5024251;28;19932;-79
2022/09/21 06:09:10;;;;;;;;;;;;;;;;;;5002859;28;19936;-78
2022/09/21 06:11:37;;;;;;;;;;;;;;;;;;5010309;28;19924;-78
2022/09/21 06:14:04;;;;;;;;;;;;;;;;;;5009898;28;19925;-77
2022/09/21 06:16:31;;;;;;;;;;;;;;;;;;5009810;28;20380;-79
2022/09/21 06:18:58;;;;;;;;;;;;;;;;;;5005430;28;19924;-77
2022/09/21 06:21:25;;;;;;;;;;;;;;;;;;5006264;28;20372;-75
2022/09/21 06:23:52;;;;;;;;;;;;;;;;;;5005790;28;19929;-77
2022/09/21 06:26:19;;;;;;;;;;;;;;;;;;5008274;28;20521;-77
2022/09/21 06:28:46;;;;;;;;;;;;;;;;;;5009384;28;19925;-78
2022/09/21 06:31:13;;;;;;;;;;;;;;;;;;5008161;28;20300;-77
2022/09/21 06:33:40;;;;;;;;;;;;;;;;;;5008331;28;19991;-79
2022/09/21 06:36:07;;;;;;;;;;;;;;;;;;5008479;28;19925;-78
2022/09/21 06:38:34;;;;;;;;;;;;;;;;;;5010276;28;19925;-77
2022/09/21 06:41:01;;;;;;;;;;;;;;;;;;5009156;28;19975;-77
2022/09/21 06:43:28;;;;;;;;;;;;;;;;;;5003539;28;20377;-78
2022/09/21 06:45:55;;;;;;;;;;;;;;;;;;5007219;28;19921;-76
2022/09/21 06:48:22;;;;;;;;;;;;;;;;;;5009003;28;20706;-79
2022/09/21 06:50:49;;;;;;;;;;;;;;;;;;5003605;28;19925;-77
2022/09/21 06:53:16;;;;;;;;;;;;;;;;;;5001658;28;19925;-79
2022/09/21 06:55:43;;;;;;;;;;;;;;;;;;5006053;28;20467;-79
2022/09/21 06:58:10;;;;;;;;;;;;;;;;;;5012102;28;19948;-78
2022/09/21 07:00:37;;;;;;;;;;;;;;;;;;5006985;28;20060;-77
2022/09/21 07:03:04;;;;;;;;;;;;;;;;;;5007900;28;19931;-79
2022/09/21 07:05:31;;;;;;;;;;;;;;;;;;5009460;28;19925;-79
2022/09/21 07:07:58;;;;;;;;;;;;;;;;;;5008617;28;19932;-77
2022/09/21 07:10:26;;;;;;;;;;;;;;;;;;5006754;28;19992;-77
2022/09/21 07:12:53;;;;;;;;;;;;;;;;;;5008372;28;19960;-77
2022/09/21 07:15:20;;;;;;;;;;;;;;;;;;5007429;28;19933;-79
2022/09/21 07:17:47;;;;;;;;;;;;;;;;;;5008085;28;19944;-79
2022/09/21 07:20:14;;;;;;;;;;;;;;;;;;5005987;28;19933;-77
2022/09/21 07:22:41;;;;;;;;;;;;;;;;;;5010138;28;19964;-79
2022/09/21 07:25:09;;;;;;;;;;;;;;;;;;5008108;28;19924;-78
2022/09/21 07:27:36;;;;;;;;;;;;;;;;;;5006527;28;20388;-79
2022/09/21 07:30:03;;;;;;;;;;;;;;;;;;5003986;28;19924;-77
2022/09/21 07:32:30;;;;;;;;;;;;;;;;;;5024942;28;19928;-78
2022/09/21 07:34:57;;;;;;;;;;;;;;;;;;5004141;28;20326;-77
2022/09/21 07:37:25;;;;;;;;;;;;;;;;;;5006375;28;20011;-78
2022/09/21 07:39:52;;;;;;;;;;;;;;;;;;5004059;28;19957;-74
2022/09/21 07:42:20;;;;;;;;;;;;;;;;;;5008787;28;20375;-77
2022/09/21 07:44:47;;;;;;;;;;;;;;;;;;5010652;28;19920;-79
2022/09/21 07:47:14;;;;;;;;;;;;;;;;;;5006392;28;20704;-74
2022/09/21 07:49:41;;;;;;;;;;;;;;;;;;5005843;28;19928;-78
2022/09/21 07:52:08;;;;;;;;;;;;;;;;;;5007163;28;20454;-75
2022/09/21 07:54:35;;;;;;;;;;;;;;;;;;5007514;28;19921;-78
2022/09/21 07:59:48;;;;;;;;;;;;;;;;;;5007784;28;19924;-78
2022/09/21 08:02:15;;;;;;;;;;;;;;;;;;5006224;28;19925;-77
2022/09/21 08:04:42;;;;;;;;;;;;;;;;;;5008627;28;19925;-78
2022/09/21 08:07:09;;;;;;;;;;;;;;;;;;5003439;28;19925;-79
2022/09/21 08:09:36;;;;;;;;;;;;;;;;;;5007952;28;19935;-78
2022/09/21 08:12:03;;;;;;;;;;;;;;;;;;5006728;28;20458;-78
2022/09/21 08:14:30;;;;;;;;;;;;;;;;;;5006602;28;19925;-78
2022/09/21 08:16:57;;;;;;;;;;;;;;;;;;5006328;28;19990;-79
2022/09/21 08:19:25;;;;;;;;;;;;;;;;;;5007474;28;19983;-79
2022/09/21 08:21:52;;;;;;;;;;;;;;;;;;5004543;28;20020;-79
2022/09/21 08:24:19;;;;;;;;;;;;;;;;;;5005989;28;19957;-78
2022/09/21 08:26:48;;;;;;;;;;;;;;;;;;5005011;28;20417;-78
2022/09/21 08:29:15;;;;;;;;;;;;;;;;;;5009240;28;19948;-79
2022/09/21 08:31:43;;;;;;;;;;;;;;;;;;5008758;28;20285;-77
2022/09/21 08:34:10;;;;;;;;;;;;;;;;;;5003488;28;19932;-77
2022/09/21 08:36:37;;;;;;;;;;;;;;;;;;5005031;28;20008;-79
2022/09/21 08:39:04;;;;;;;;;;;;;;;;;;5008495;28;19932;-78
2022/09/21 08:41:31;;;;;;;;;;;;;;;;;;5002322;28;19925;-78
2022/09/21 08:43:58;;;;;;;;;;;;;;;;;;5003974;28;19921;-78
2022/09/21 08:46:25;;;;;;;;;;;;;;;;;;5003960;28;19932;-77
2022/09/21 08:48:52;;;;;;;;;;;;;;;;;;5007603;28;20292;-79
2022/09/21 08:51:20;;;;;;;;;;;;;;;;;;5005034;28;19925;-77
2022/09/21 08:53:47;;;;;;;;;;;;;;;;;;5007321;28;19921;-78
2022/09/21 08:56:14;;;;;;;;;;;;;;;;;;5007015;28;19928;-76
2022/09/21 08:58:42;;;;;;;;;;;;;;;;;;5023551;28;19979;-78
2022/09/21 09:01:09;;;;;;;;;;;;;;;;;;5008845;28;20466;-79
2022/09/21 09:03:36;;;;;;;;;;;;;;;;;;5011444;28;19932;-76
2022/09/21 09:06:03;;;;;;;;;;;;;;;;;;5009805;28;19935;-79
2022/09/21 09:08:30;;;;;;;;;;;;;;;;;;5008009;28;19967;-77
2022/09/21 09:10:57;;;;;;;;;;;;;;;;;;5008885;28;20368;-78
2022/09/21 09:13:24;;;;;;;;;;;;;;;;;;5006436;28;19925;-77
2022/09/21 09:15:51;;;;;;;;;;;;;;;;;;5010490;28;19929;-76
2022/09/21 09:18:18;;;;;;;;;;;;;;;;;;5007206;28;19925;-77
2022/09/21 09:20:45;;;;;;;;;;;;;;;;;;5006798;28;20015;-78
2022/09/21 09:23:12;;;;;;;;;;;;;;;;;;5010586;28;19933;-77
2022/09/21 09:25:39;;;;;;;;;;;;;;;;;;5011810;28;19921;-78
2022/09/21 09:28:07;;;;;;;;;;;;;;;;;;5008292;28;20005;-78
2022/09/21 09:30:34;;;;;;;;;;;;;;;;;;5026665;28;19935;-77
2022/09/21 09:33:01;;;;;;;;;;;;;;;;;;5005745;28;20380;-77
2022/09/21 09:35:28;;;;;;;;;;;;;;;;;;5002810;28;19929;-77
2022/09/21 09:37:55;;;;;;;;;;;;;;;;;;5004159;28;19978;-78
2022/09/21 09:40:22;;;;;;;;;;;;;;;;;;5003870;28;19921;-78
2022/09/21 09:42:49;;;;;;;;;;;;;;;;;;5007975;28;19932;-76
2022/09/21 09:45:17;;;;;;;;;;;;;;;;;;5009411;28;19924;-77
2022/09/21 09:47:44;;;;;;;;;;;;;;;;;;5010070;28;19929;-73
2022/09/21 09:50:11;;;;;;;;;;;;;;;;;;5008837;28;19928;-73
2022/09/21 09:52:38;;;;;;;;;;;;;;;;;;5008239;28;19928;-78
2022/09/21 09:55:05;;;;;;;;;;;;;;;;;;5009200;28;19932;-77
2022/09/21 09:57:32;;;;;;;;;;;;;;;;;;5008675;28;19929;-75
2022/09/21 10:00:00;;;;;;;;;;;;;;;;;;5006748;28;19929;-79
2022/09/21 10:02:27;;;;;;;;;;;;;;;;;;5008887;28;19933;-74
2022/09/21 10:04:54;;;;;;;;;;;;;;;;;;5008489;28;19929;-77
2022/09/21 10:07:21;;;;;;;;;;;;;;;;;;5007011;28;19980;-75
2022/09/21 10:09:48;;;;;;;;;;;;;;;;;;5003065;28;20421;-78
2022/09/21 10:12:15;;;;;;;;;;;;;;;;;;5008804;28;19974;-74
2022/09/21 10:14:42;;;;;;;;;;;;;;;;;;5028285;28;19928;-77
2022/09/21 10:17:09;;;;;;;;;;;;;;;;;;5012113;28;19979;-77
2022/09/21 10:19:37;;;;;;;;;;;;;;;;;;5015444;28;19925;-78
2022/09/21 10:22:04;;;;;;;;;;;;;;;;;;5007728;28;19932;-77
2022/09/21 10:24:32;;;;;;;;;;;;;;;;;;5012532;28;19932;-76
2022/09/21 10:26:59;;;;;;;;;;;;;;;;;;5007370;28;19929;-77
2022/09/21 10:29:26;;;;;;;;;;;;;;;;;;5009019;28;19995;-78
2022/09/21 10:31:53;;;;;;;;;;;;;;;;;;5022387;28;20119;-79
2022/09/21 10:34:20;;;;;;;;;;;;;;;;;;5005213;28;19925;-76
2022/09/21 10:36:48;;;;;;;;;;;;;;;;;;5008130;28;20020;-78
2022/09/21 10:39:15;;;;;;;;;;;;;;;;;;5021386;28;19922;-78
2022/09/21 10:41:42;;;;;;;;;;;;;;;;;;5026896;28;19921;-77
2022/09/21 10:44:09;;;;;;;;;;;;;;;;;;5006776;28;19929;-77
2022/09/21 10:46:36;;;;;;;;;;;;;;;;;;5004307;28;20439;-78
2022/09/21 10:49:03;;;;;;;;;;;;;;;;;;5007492;28;19925;-76
2022/09/21 10:51:30;;;;;;;;;;;;;;;;;;5001462;28;19936;-77
2022/09/21 10:53:57;;;;;;;;;;;;;;;;;;5007902;28;19927;-76
2022/09/21 10:56:24;;;;;;;;;;;;;;;;;;5006709;28;20379;-77
2022/09/21 10:58:51;;;;;;;;;;;;;;;;;;5010724;28;19932;-77
2022/09/21 11:01:18;;;;;;;;;;;;;;;;;;5023217;28;20380;-78
2022/09/21 11:03:45;;;;;;;;;;;;;;;;;;5005911;28;19992;-77
2022/09/21 11:06:13;;;;;;;;;;;;;;;;;;5004313;28;19928;-76
2022/09/21 11:08:40;;;;;;;;;;;;;;;;;;5009766;28;19932;-77
2022/09/21 11:11:07;;;;;;;;;;;;;;;;;;5004623;28;19920;-77
2022/09/21 11:13:34;;;;;;;;;;;;;;;;;;5008905;28;19929;-77
2022/09/21 11:16:01;;;;;;;;;;;;;;;;;;5022312;28;19925;-76
2022/09/21 11:18:28;;;;;;;;;;;;;;;;;;5005224;28;19921;-76
2022/09/21 11:20:55;;;;;;;;;;;;;;;;;;5012279;28;20555;-76
2022/09/21 11:23:22;;;;;;;;;;;;;;;;;;5006703;28;19925;-75
2022/09/21 11:25:49;;;;;;;;;;;;;;;;;;5009232;28;19925;-78
2022/09/21 11:28:16;;;;;;;;;;;;;;;;;;5005137;28;20773;-75
2022/09/21 11:30:44;;;;;;;;;;;;;;;;;;5011455;28;19932;-78
2022/09/21 11:33:11;;;;;;;;;;;;;;;;;;5011538;28;20059;-73
2022/09/21 11:35:39;;;;;;;;;;;;;;;;;;5005275;28;20004;-78
2022/09/21 11:38:06;;;;;;;;;;;;;;;;;;5005770;28;19950;-77
2022/09/21 11:40:33;;;;;;;;;;;;;;;;;;5002830;28;19932;-78
2022/09/21 11:43:09;;;;;;;;;;;;;;;;;;5121172;27;19949;-75
2022/09/21 11:45:36;;;;;;;;;;;;;;;;;;5085691;28;19932;-75
2022/09/21 11:48:03;;;;;;;;;;;;;;;;;;5081481;28;20356;-75
2022/09/21 11:50:30;;;;;;;;;;;;;;;;;;5083429;28;19932;-76
2022/09/21 11:52:57;;;;;;;;;;;;;;;;;;5079260;28;19933;-76
2022/09/21 11:55:24;;;;;;;;;;;;;;;;;;5076602;28;19936;-76
2022/09/21 11:57:51;;;;;;;;;;;;;;;;;;5082512;28;19943;-75
2022/09/21 12:00:18;;;;;;;;;;;;;;;;;;5078922;28;19924;-75
2022/09/21 12:02:45;;;;;;;;;;;;;;;;;;5109826;28;19939;-76
2022/09/21 12:05:12;;;;;;;;;;;;;;;;;;5086042;28;19931;-76
2022/09/21 12:07:39;;;;;;;;;;;;;;;;;;5085980;28;19932;-77
2022/09/21 12:10:06;;;;;;;;;;;;;;;;;;5086726;28;19928;-74
2022/09/21 12:12:33;;;;;;;;;;;;;;;;;;5092057;28;19959;-76
2022/09/21 12:15:01;;;;;;;;;;;;;;;;;;5089752;28;19932;-72
2022/09/21 12:17:28;;;;;;;;;;;;;;;;;;5086452;28;20015;-76
2022/09/21 12:19:55;;;;;;;;;;;;;;;;;;5079821;28;19929;-75
2022/09/21 12:22:22;;;;;;;;;;;;;;;;;;5076311;28;19950;-75
2022/09/21 12:24:49;;;;;;;;;;;;;;;;;;5081067;28;19928;-75
2022/09/21 12:27:16;;;;;;;;;;;;;;;;;;5080399;28;19924;-76
2022/09/21 12:29:46;;;;;;;;;;;;;;;;;;5081631;28;20442;-75
2022/09/21 12:32:14;;;;;;;;;;;;;;;;;;5081852;28;19928;-77
2022/09/21 12:34:41;;;;;;;;;;;;;;;;;;5106767;28;19963;-76
2022/09/21 12:37:08;;;;;;;;;;;;;;;;;;5086650;28;20023;-75
2022/09/21 12:39:36;;;;;;;;;;;;;;;;;;5084480;28;19928;-76
2022/09/21 12:42:03;;;;;;;;;;;;;;;;;;5087345;28;20288;-73
2022/09/21 12:44:30;;;;;;;;;;;;;;;;;;5106412;28;19932;-75
2022/09/21 12:47:07;;;;;;;;;;;;;;;;;;5112841;28;19985;-75
2022/09/21 12:49:34;;;;;;;;;;;;;;;;;;5098933;28;19930;-71
2022/09/21 12:52:02;;;;;;;;;;;;;;;;;;5102699;28;20298;-76
2022/09/21 12:54:29;;;;;;;;;;;;;;;;;;5087029;28;19971;-76
2022/09/21 12:56:56;;;;;;;;;;;;;;;;;;5095248;28;21027;-75
2022/09/21 12:59:23;;;;;;;;;;;;;;;;;;5092051;28;19929;-76
2022/09/21 13:01:50;;;;;;;;;;;;;;;;;;5090395;28;20159;-75
2022/09/21 13:04:17;;;;;;;;;;;;;;;;;;5085634;28;19928;-76
2022/09/21 13:06:44;;;;;;;;;;;;;;;;;;5088037;28;19924;-76
2022/09/21 13:09:11;;;;;;;;;;;;;;;;;;5086939;28;20180;-73
2022/09/21 13:11:38;;;;;;;;;;;;;;;;;;5086701;28;20464;-77
2022/09/21 13:14:05;;;;;;;;;;;;;;;;;;5090431;28;19932;-74
2022/09/21 13:16:32;;;;;;;;;;;;;;;;;;5092367;28;20379;-74
2022/09/21 13:18:59;;;;;;;;;;;;;;;;;;5088375;28;19924;-76
2022/09/21 13:21:26;;;;;;;;;;;;;;;;;;5095451;28;19967;-76
2022/09/21 13:23:53;;;;;;;;;;;;;;;;;;5087726;28;19978;-77
2022/09/21 13:26:21;;;;;;;;;;;;;;;;;;5089581;28;19932;-76
2022/09/21 13:28:49;;;;;;;;;;;;;;;;;;5091741;28;19924;-78
2022/09/21 13:31:16;;;;;;;;;;;;;;;;;;5091939;28;19928;-77
2022/09/21 13:33:43;;;;;;;;;;;;;;;;;;5080559;28;19929;-76
2022/09/21 13:36:10;;;;;;;;;;;;;;;;;;5088166;28;19932;-76
2022/09/21 13:38:38;;;;;;;;;;;;;;;;;;5088130;28;19928;-77
2022/09/21 13:41:05;;;;;;;;;;;;;;;;;;5086389;28;19928;-75
2022/09/21 13:43:33;;;;;;;;;;;;;;;;;;5087918;28;19935;-74
2022/09/21 13:46:00;;;;;;;;;;;;;;;;;;5089493;28;20154;-75
2022/09/21 13:48:28;;;;;;;;;;;;;;;;;;5090383;28;19935;-74
2022/09/21 13:50:55;;;;;;;;;;;;;;;;;;5094566;28;19971;-77
2022/09/21 13:53:22;;;;;;;;;;;;;;;;;;5088096;28;19928;-75
2022/09/21 13:55:49;;;;;;;;;;;;;;;;;;5100732;28;19976;-74
2022/09/21 13:58:16;;;;;;;;;;;;;;;;;;5097558;28;19928;-72
2022/09/21 14:00:43;;;;;;;;;;;;;;;;;;5097511;28;19923;-75
2022/09/21 14:03:10;;;;;;;;;;;;;;;;;;5095910;28;19932;-75
2022/09/21 14:05:38;;;;;;;;;;;;;;;;;;5083074;28;19928;-74
2022/09/21 14:08:05;;;;;;;;;;;;;;;;;;5083191;28;19928;-74
2022/09/21 14:10:32;;;;;;;;;;;;;;;;;;5098253;28;19927;-75
2022/09/21 14:12:59;;;;;;;;;;;;;;;;;;5091717;28;19931;-75
2022/09/21 14:15:26;;;;;;;;;;;;;;;;;;5090900;28;20026;-74
2022/09/21 14:17:53;;;;;;;;;;;;;;;;;;5092468;28;19935;-75
2022/09/21 14:20:21;;;;;;;;;;;;;;;;;;5083759;28;19931;-75
2022/09/21 14:22:48;;;;;;;;;;;;;;;;;;5084808;28;20045;-76
2022/09/21 14:25:15;;;;;;;;;;;;;;;;;;5087701;28;20743;-75
2022/09/21 14:27:42;;;;;;;;;;;;;;;;;;5087045;28;19928;-75
2022/09/21 14:30:09;;;;;;;;;;;;;;;;;;5083881;28;19932;-75
2022/09/21 14:32:38;;;;;;;;;;;;;;;;;;5087316;28;20406;-75
2022/09/21 14:35:06;;;;;;;;;;;;;;;;;;5083548;28;19928;-76
2022/09/21 14:37:34;;;;;;;;;;;;;;;;;;5085808;28;20011;-75
2022/09/21 14:40:01;;;;;;;;;;;;;;;;;;5090319;28;20303;-74
2022/09/21 14:42:28;;;;;;;;;;;;;;;;;;5086272;28;19928;-76
2022/09/21 14:44:55;;;;;;;;;;;;;;;;;;5094296;28;19932;-75
2022/09/21 14:47:24;;;;;;;;;;;;;;;;;;5088918;28;19934;-75
2022/09/21 14:49:51;;;;;;;;;;;;;;;;;;5086573;28;19940;-75
2022/09/21 14:52:18;;;;;;;;;;;;;;;;;;5092319;28;19928;-75
2022/09/21 14:54:45;;;;;;;;;;;;;;;;;;5088295;28;20406;-75
2022/09/21 14:57:12;;;;;;;;;;;;;;;;;;5087989;28;19928;-76
2022/09/21 14:59:39;;;;;;;;;;;;;;;;;;5088354;28;19924;-75
2022/09/21 15:02:06;;;;;;;;;;;;;;;;;;5082147;28;19932;-73
2022/09/21 15:04:33;;;;;;;;;;;;;;;;;;5073350;28;19943;-75
2022/09/21 15:12:29;;;;;;;;;;;;;;;;;;5080268;28;19946;-74
2022/09/21 15:14:56;;;;;;;;;;;;;;;;;;5090974;28;20131;-73
2022/09/21 15:17:24;;;;;;;;;;;;;;;;;;5086787;28;19924;-75
2022/09/21 15:19:51;;;;;;;;;;;;;;;;;;5090621;28;20052;-74
2022/09/21 15:22:18;;;;;;;;;;;;;;;;;;5090836;28;20267;-75
2022/09/21 15:24:45;;;;;;;;;;;;;;;;;;5088921;28;19923;-76
2022/09/21 15:27:13;;;;;;;;;;;;;;;;;;5084457;28;19928;-74
2022/09/21 15:29:40;;;;;;;;;;;;;;;;;;5091717;28;20477;-75
2022/09/21 15:32:07;;;;;;;;;;;;;;;;;;5086841;28;19931;-74
2022/09/21 15:34:34;;;;;;;;;;;;;;;;;;5082325;28;19931;-75
2022/09/21 15:37:01;;;;;;;;;;;;;;;;;;5083072;28;19932;-75
2022/09/21 15:39:28;;;;;;;;;;;;;;;;;;5079772;28;19928;-75
2022/09/21 15:41:55;;;;;;;;;;;;;;;;;;5083334;28;19942;-74
2022/09/21 15:44:22;;;;;;;;;;;;;;;;;;5087548;28;20349;-75
2022/09/21 15:46:49;;;;;;;;;;;;;;;;;;5085084;28;19932;-75
2022/09/21 15:49:20;;;;;;;;;;;;;;;;;;5089542;28;19934;-76
2022/09/21 15:51:50;;;;;;;;;;;;;;;;;;5087115;28;19931;-76
2022/09/21 15:54:20;;;;;;;;;;;;;;;;;;5087757;28;19924;-76
2022/09/21 15:56:47;;;;;;;;;;;;;;;;;;5085585;28;19980;-75
2022/09/21 15:59:14;;;;;;;;;;;;;;;;;;5083360;28;19951;-76
2022/09/21 16:01:41;;;;;;;;;;;;;;;;;;5086700;28;19935;-75
2022/09/21 16:04:08;;;;;;;;;;;;;;;;;;5087301;28;19928;-72
2022/09/21 16:06:35;;;;;;;;;;;;;;;;;;5087935;28;20406;-75
2022/09/21 16:09:02;;;;;;;;;;;;;;;;;;5095083;28;19927;-76
2022/09/21 16:11:29;;;;;;;;;;;;;;;;;;5093397;28;19930;-76
2022/09/21 16:16:41;;;;;;;;;;;;;;;;;;5080233;28;19924;-74
2022/09/21 16:19:08;;;;;;;;;;;;;;;;;;5085187;28;19928;-78
2022/09/21 16:21:36;;;;;;;;;;;;;;;;;;5086902;28;19928;-77
2022/09/21 16:24:04;;;;;;;;;;;;;;;;;;5082967;28;19928;-77
2022/09/21 16:26:31;;;;;;;;;;;;;;;;;;5084477;28;19932;-78
2022/09/21 16:28:58;;;;;;;;;;;;;;;;;;5094111;28;19931;-76
2022/09/21 16:31:27;;;;;;;;;;;;;;;;;;5093384;28;19931;-76
2022/09/21 16:33:55;;;;;;;;;;;;;;;;;;5086938;28;19972;-74
2022/09/21 16:36:22;;;;;;;;;;;;;;;;;;5088043;28;20035;-77
2022/09/21 16:38:52;;;;;;;;;;;;;;;;;;5084867;28;19928;-79
2022/09/21 16:41:19;;;;;;;;;;;;;;;;;;5084044;28;19928;-78
2022/09/21 16:43:49;;;;;;;;;;;;;;;;;;5087567;28;19954;-77
2022/09/21 16:46:16;;;;;;;;;;;;;;;;;;5086540;28;19928;-77
2022/09/21 16:48:43;;;;;;;;;;;;;;;;;;5094228;28;20367;-76
2022/09/21 16:51:10;;;;;;;;;;;;;;;;;;5090121;28;19923;-74
2022/09/21 16:53:37;;;;;;;;;;;;;;;;;;5093610;28;19935;-79
2022/09/21 16:56:05;;;;;;;;;;;;;;;;;;5087832;28;20048;-75